createdAt,value
2022-08-20T00:02:13.244Z,68.70
2022-08-20T00:05:02.695Z,69.97
2022-08-20T00:07:52.736Z,62.38
2022-08-20T00:10:43.977Z,55.65
2022-08-20T00:13:41.844Z,67.85
2022-08-20T00:16:36.054Z,64.03
2022-08-20T00:19:28.600Z,54.58
2022-08-20T00:22:18.306Z,54.15
2022-08-20T00:25:09.663Z,57.20
2022-08-20T00:28:00.288Z,67.38
2022-08-20T00:30:50.189Z,69.72
2022-08-20T00:33:42.146Z,72.65
2022-08-20T00:36:32.330Z,81.20
2022-08-20T00:39:22.488Z,70.18
2022-08-20T00:42:12.736Z,74.80
2022-08-20T00:45:02.884Z,76.50
2022-08-20T00:47:52.665Z,67.72
2022-08-20T00:50:42.565Z,74.95
2022-08-20T00:53:33.105Z,60.38
2022-08-20T00:56:22.947Z,65.32
2022-08-20T00:59:17.850Z,59.95
2022-08-20T01:02:11.919Z,53.92
2022-08-20T01:05:00.993Z,52.42
2022-08-20T01:07:50.657Z,60.13
2022-08-20T01:10:47.078Z,57.03
2022-08-20T01:13:41.555Z,55.60
2022-08-20T01:16:33.071Z,59.25
2022-08-20T01:19:31.415Z,69.68
2022-08-20T01:23:14.487Z,65.70
2022-08-20T01:26:29.456Z,75.68
2022-08-20T01:29:26.134Z,77.82
2022-08-20T01:32:15.465Z,65.90
2022-08-20T01:35:06.975Z,62.70
2022-08-20T01:37:56.683Z,72.47
2022-08-20T01:41:28.902Z,75.63
2022-08-20T01:44:19.729Z,75.25
2022-08-20T01:47:22.563Z,72.45
2022-08-20T01:50:20.048Z,67.90
2022-08-20T01:53:31.628Z,64.32
2022-08-20T01:56:27.128Z,70.10
2022-08-20T01:59:17.758Z,68.65
2022-08-20T02:02:08.412Z,68.75
2022-08-20T02:05:02.206Z,56.50
2022-08-20T02:07:52.009Z,55.20
2022-08-20T02:10:42.229Z,52.95
2022-08-20T02:13:32.194Z,49.00
2022-08-20T02:16:30.677Z,51.90
2022-08-20T02:19:36.026Z,50.15
2022-08-20T02:22:50.163Z,47.85
2022-08-20T02:25:41.976Z,53.90
2022-08-20T02:28:31.544Z,55.85
2022-08-20T02:31:22.576Z,55.22
2022-08-20T02:34:22.414Z,60.13
2022-08-20T02:37:17.731Z,53.13
2022-08-20T02:40:09.486Z,55.03
2022-08-20T02:43:00.938Z,68.80
2022-08-20T02:45:50.906Z,59.85
2022-08-20T02:48:41.758Z,77.25
2022-08-20T02:51:31.891Z,67.30
2022-08-20T02:54:21.626Z,71.75
2022-08-20T02:57:16.135Z,60.55
2022-08-20T03:00:13.341Z,60.72
2022-08-20T03:03:03.842Z,58.17
2022-08-20T03:05:55.941Z,58.65
2022-08-20T03:08:46.702Z,60.70
2022-08-20T03:11:38.400Z,61.50
2022-08-20T03:14:29.850Z,66.05
2022-08-20T03:17:22.115Z,61.40
2022-08-20T03:20:12.670Z,61.70
2022-08-20T03:23:02.757Z,63.47
2022-08-20T03:25:52.565Z,66.82
2022-08-20T03:28:43.021Z,60.70
2022-08-20T03:31:32.464Z,60.95
2022-08-20T03:34:22.435Z,61.53
2022-08-20T03:37:13.035Z,55.45
2022-08-20T03:40:03.955Z,53.70
2022-08-20T03:42:54.137Z,62.00
2022-08-20T03:45:46.106Z,57.50
2022-08-20T03:48:37.173Z,54.95
2022-08-20T03:51:27.366Z,52.05
2022-08-20T03:54:17.106Z,52.72
2022-08-20T03:57:12.474Z,51.17
2022-08-20T04:00:03.507Z,49.22
2022-08-20T04:03:02.140Z,50.20
2022-08-20T04:05:53.244Z,49.28
2022-08-20T04:08:43.811Z,49.15
2022-08-20T04:11:34.855Z,49.78
2022-08-20T04:14:25.008Z,47.75
2022-08-20T04:17:20.877Z,48.75
2022-08-20T04:20:14.857Z,54.92
2022-08-20T04:23:05.494Z,51.97
2022-08-20T04:25:56.478Z,48.30
2022-08-20T04:28:47.196Z,49.03
2022-08-20T04:31:36.941Z,50.30
2022-08-20T04:34:27.581Z,49.90
2022-08-20T04:37:20.516Z,49.00
2022-08-20T04:40:32.729Z,48.55
2022-08-20T04:43:25.829Z,46.22
2022-08-20T04:46:15.985Z,47.30
2022-08-20T04:49:08.155Z,48.53
2022-08-20T04:51:58.108Z,51.92
2022-08-20T04:54:49.013Z,51.03
2022-08-20T04:57:39.869Z,50.63
2022-08-20T05:00:30.346Z,51.47
2022-08-20T05:03:21.062Z,50.50
2022-08-20T05:06:12.664Z,51.53
2022-08-20T05:09:03.300Z,48.95
2022-08-20T05:11:52.688Z,51.42
2022-08-20T05:14:42.151Z,54.95
2022-08-20T05:17:32.045Z,53.38
2022-08-20T05:20:22.059Z,57.55
2022-08-20T05:23:13.975Z,56.67
2022-08-20T05:26:08.849Z,54.92
2022-08-20T05:28:59.475Z,28.80
2022-08-20T05:31:49.866Z,22.80
2022-08-20T05:34:39.981Z,18.02
2022-08-20T05:37:32.863Z,28.33
2022-08-20T05:40:24.331Z,21.35
2022-08-20T05:43:15.214Z,14.00
2022-08-20T05:46:04.326Z,12.73
2022-08-20T05:48:54.578Z,11.50
2022-08-20T05:51:44.637Z,13.82
2022-08-20T05:54:35.434Z,7.20
2022-08-20T05:57:26.032Z,9.45
2022-08-20T06:00:16.860Z,10.10
2022-08-20T06:03:25.942Z,5.88
2022-08-20T06:06:32.208Z,9.48
2022-08-20T06:09:27.982Z,16.05
2022-08-20T06:12:24.452Z,9.95
2022-08-20T06:15:14.598Z,18.67
2022-08-20T06:18:27.999Z,11.93
2022-08-20T06:21:19.222Z,12.68
2022-08-20T06:24:11.109Z,18.42
2022-08-20T06:27:03.160Z,33.55
2022-08-20T06:29:52.930Z,61.95
2022-08-20T06:32:42.596Z,38.65
2022-08-20T06:35:32.223Z,34.78
2022-08-20T06:38:22.969Z,42.03
2022-08-20T06:41:12.507Z,46.45
2022-08-20T06:44:05.983Z,48.45
2022-08-20T06:46:57.650Z,47.38
2022-08-20T06:49:48.942Z,51.58
2022-08-20T06:52:52.730Z,52.92
2022-08-20T06:55:48.102Z,54.05
2022-08-20T06:58:39.146Z,55.55
2022-08-20T07:01:28.697Z,47.50
2022-08-20T07:04:18.392Z,43.60
2022-08-20T07:07:08.641Z,47.80
2022-08-20T07:10:07.668Z,46.22
2022-08-20T07:12:58.368Z,50.00
2022-08-20T07:15:48.117Z,47.90
2022-08-20T07:18:42.851Z,41.90
2022-08-20T07:21:32.112Z,36.85
2022-08-20T07:24:22.311Z,45.40
2022-08-20T07:27:12.277Z,38.00
2022-08-20T07:30:20.235Z,40.20
2022-08-20T07:33:12.643Z,46.78
2022-08-20T07:36:05.641Z,47.72
2022-08-20T07:38:56.970Z,49.92
2022-08-20T07:42:04.189Z,44.25
2022-08-20T07:44:54.207Z,44.70
2022-08-20T07:47:45.500Z,59.85
2022-08-20T07:50:37.891Z,52.78
2022-08-20T07:53:32.292Z,46.10
2022-08-20T07:56:25.998Z,50.15
2022-08-20T07:59:20.103Z,67.00
2022-08-20T08:02:09.786Z,55.75
2022-08-20T08:05:01.011Z,55.00
2022-08-20T08:07:50.979Z,53.63
2022-08-20T08:10:43.377Z,56.83
2022-08-20T08:13:48.948Z,52.17
2022-08-20T08:16:39.416Z,46.95
2022-08-20T08:19:37.615Z,48.83
2022-08-20T08:22:27.472Z,41.30
2022-08-20T08:25:18.479Z,52.22
2022-08-20T08:28:08.155Z,43.90
2022-08-20T08:31:01.079Z,42.08
2022-08-20T08:33:51.534Z,36.13
2022-08-20T08:36:41.905Z,29.98
2022-08-20T08:39:35.130Z,32.88
2022-08-20T08:42:33.853Z,32.13
2022-08-20T08:45:23.790Z,33.30
2022-08-20T08:48:18.404Z,34.60
2022-08-20T08:51:14.046Z,25.75
2022-08-20T08:54:06.964Z,25.77
2022-08-20T08:56:57.818Z,28.42
2022-08-20T09:00:04.433Z,21.23
2022-08-20T09:03:03.515Z,19.90
2022-08-20T09:06:01.179Z,24.95
2022-08-20T09:08:54.599Z,24.55
2022-08-20T09:11:54.463Z,17.33
2022-08-20T09:14:43.854Z,18.02
2022-08-20T09:17:32.958Z,18.23
2022-08-20T09:20:26.910Z,21.73
2022-08-20T09:23:16.985Z,25.98
2022-08-20T09:26:07.641Z,29.77
2022-08-20T09:28:58.121Z,35.88
2022-08-20T09:31:49.195Z,20.58
2022-08-20T09:34:45.808Z,31.50
2022-08-20T09:37:37.693Z,33.75
2022-08-20T09:40:28.378Z,33.22
2022-08-20T09:43:18.051Z,30.27
2022-08-20T09:46:08.131Z,33.30
2022-08-20T09:48:59.265Z,34.03
2022-08-20T09:51:49.160Z,28.95
2022-08-20T09:54:39.937Z,33.00
2022-08-20T09:57:37.330Z,29.10
2022-08-20T10:00:27.838Z,30.90
2022-08-20T10:03:18.280Z,30.55
2022-08-20T10:06:08.733Z,29.23
2022-08-20T10:08:58.406Z,23.25
2022-08-20T10:11:48.149Z,28.85
2022-08-20T10:14:37.894Z,16.88
2022-08-20T10:17:27.483Z,27.50
2022-08-20T10:20:19.743Z,22.25
2022-08-20T10:23:09.353Z,25.17
2022-08-20T10:26:01.778Z,18.15
2022-08-20T10:28:51.316Z,18.35
2022-08-20T10:31:41.570Z,21.77
2022-08-20T10:34:31.067Z,27.27
2022-08-20T10:37:23.467Z,30.13
2022-08-20T10:40:16.805Z,30.75
2022-08-20T10:43:06.499Z,22.85
2022-08-20T10:45:56.862Z,32.03
2022-08-20T10:48:46.963Z,27.02
2022-08-20T10:51:36.510Z,32.10
2022-08-20T10:54:26.635Z,30.92
2022-08-20T10:57:23.116Z,30.17
2022-08-20T11:00:15.959Z,28.42
2022-08-20T11:03:05.933Z,33.90
2022-08-20T11:05:55.844Z,31.10
2022-08-20T11:08:45.986Z,31.17
2022-08-20T11:11:35.917Z,37.33
2022-08-20T11:14:25.935Z,39.90
2022-08-20T11:17:20.611Z,43.90
2022-08-20T11:20:12.500Z,45.45
2022-08-20T11:23:03.657Z,36.38
2022-08-20T11:25:53.804Z,36.75
2022-08-20T11:28:44.343Z,40.25
2022-08-20T11:31:34.122Z,38.42
2022-08-20T11:34:23.612Z,33.95
2022-08-20T11:37:15.487Z,37.28
2022-08-20T11:40:06.584Z,41.67
2022-08-20T11:46:07.194Z,43.15
2022-08-20T11:48:57.870Z,34.97
2022-08-20T11:51:49.220Z,36.45
2022-08-20T11:54:41.939Z,34.00
2022-08-20T11:57:34.219Z,36.85
2022-08-20T12:00:32.172Z,34.38
2022-08-20T12:03:23.077Z,39.40
2022-08-20T12:06:12.958Z,37.25
2022-08-20T12:09:03.679Z,30.35
2022-08-20T12:11:52.828Z,32.92
2022-08-20T12:14:43.474Z,28.80
2022-08-20T12:17:34.182Z,27.85
2022-08-20T12:20:25.881Z,26.77
2022-08-20T12:23:16.428Z,25.08
2022-08-20T12:26:06.048Z,27.35
2022-08-20T12:28:58.472Z,30.10
2022-08-20T12:31:48.072Z,26.33
2022-08-20T12:34:42.162Z,30.25
2022-08-20T12:37:32.954Z,29.65
2022-08-20T12:40:31.788Z,27.35
2022-08-20T12:43:25.028Z,30.63
2022-08-20T12:46:15.086Z,31.08
2022-08-20T12:49:05.719Z,30.88
2022-08-20T12:51:56.636Z,30.42
2022-08-20T12:54:47.003Z,35.78
2022-08-20T12:57:40.263Z,31.75
2022-08-20T13:00:43.095Z,29.10
2022-08-20T13:03:33.095Z,26.38
2022-08-20T13:06:32.405Z,25.88
2022-08-20T13:09:22.368Z,26.45
2022-08-20T13:12:14.969Z,27.27
2022-08-20T13:15:04.491Z,25.00
2022-08-20T13:17:56.820Z,28.15
2022-08-20T13:20:46.769Z,25.25
2022-08-20T13:23:39.994Z,25.17
2022-08-20T13:26:29.725Z,29.60
2022-08-20T13:29:20.778Z,27.30
2022-08-20T13:32:11.999Z,28.40
2022-08-20T13:35:02.321Z,27.48
2022-08-20T13:37:52.432Z,28.67
2022-08-20T13:40:42.391Z,29.48
2022-08-20T13:43:32.636Z,27.25
2022-08-20T13:46:23.600Z,27.85
2022-08-20T13:49:13.851Z,31.35
2022-08-20T13:52:04.853Z,28.25
2022-08-20T13:54:55.073Z,28.42
2022-08-20T13:57:45.475Z,31.30
2022-08-20T14:00:36.179Z,30.27
2022-08-20T14:03:26.089Z,37.25
2022-08-20T14:06:17.367Z,35.08
2022-08-20T14:09:07.496Z,42.45
2022-08-20T14:11:56.537Z,43.08
2022-08-20T14:14:46.718Z,46.13
2022-08-20T14:17:42.004Z,42.30
2022-08-20T14:20:33.642Z,44.20
2022-08-20T14:23:23.641Z,52.15
2022-08-20T14:26:13.672Z,42.50
2022-08-20T14:29:04.623Z,41.25
2022-08-20T14:31:57.641Z,29.27
2022-08-20T14:34:47.399Z,25.10
2022-08-20T14:37:59.071Z,19.20
2022-08-20T14:40:51.517Z,18.27
2022-08-20T14:43:40.761Z,16.40
2022-08-20T14:46:30.274Z,13.10
2022-08-20T14:49:20.606Z,11.65
2022-08-20T14:52:10.962Z,10.00
2022-08-20T14:55:02.686Z,10.07
2022-08-20T14:57:53.149Z,12.00
2022-08-20T15:00:43.356Z,12.77
2022-08-20T15:03:33.251Z,10.13
2022-08-20T15:06:23.491Z,8.98
2022-08-20T15:09:15.148Z,9.18
2022-08-20T15:12:05.546Z,10.45
2022-08-20T15:14:54.899Z,7.35
2022-08-20T15:17:54.969Z,8.73
2022-08-20T15:20:44.841Z,8.10
2022-08-20T15:23:34.493Z,5.72
2022-08-20T15:26:24.039Z,7.57
2022-08-20T15:29:18.397Z,7.40
2022-08-20T15:32:13.337Z,6.88
2022-08-20T15:35:02.936Z,10.77
2022-08-20T15:37:54.702Z,7.80
2022-08-20T15:40:44.382Z,7.53
2022-08-20T15:43:34.468Z,8.27
2022-08-20T15:46:27.769Z,5.63
2022-08-20T15:49:20.173Z,7.72
2022-08-20T15:52:09.920Z,5.43
2022-08-20T15:54:59.603Z,5.72
2022-08-20T15:58:17.890Z,7.30
2022-08-20T16:01:33.716Z,4.78
2022-08-20T16:05:00.528Z,5.97
2022-08-20T16:08:05.357Z,7.30
2022-08-20T16:11:06.457Z,7.65
2022-08-20T16:14:15.620Z,6.25
2022-08-20T16:17:15.987Z,8.45
2022-08-20T16:20:15.781Z,5.85
2022-08-20T16:23:05.936Z,7.95
2022-08-20T16:26:01.208Z,8.00
2022-08-20T16:29:13.780Z,8.10
2022-08-20T16:32:30.018Z,10.40
2022-08-20T16:35:29.584Z,9.75
2022-08-20T16:38:43.036Z,9.20
2022-08-20T16:41:41.684Z,10.15
2022-08-20T16:44:49.285Z,9.32
2022-08-20T16:47:42.073Z,10.55
2022-08-20T16:50:33.697Z,9.93
2022-08-20T16:53:25.082Z,10.18
2022-08-20T16:56:14.743Z,13.25
2022-08-20T16:59:07.721Z,11.88
2022-08-20T17:02:10.857Z,11.18
2022-08-20T17:05:06.543Z,12.93
2022-08-20T17:08:08.434Z,10.70
2022-08-20T17:11:02.631Z,11.25
2022-08-20T17:13:55.235Z,8.95
2022-08-20T17:16:51.293Z,11.23
2022-08-20T17:19:40.596Z,13.45
2022-08-20T17:22:32.455Z,10.48
2022-08-20T17:25:32.588Z,9.75
2022-08-20T17:28:31.998Z,9.30
2022-08-20T17:31:43.415Z,13.57
2022-08-20T17:34:45.733Z,10.68
2022-08-20T17:37:40.701Z,11.25
2022-08-20T17:40:41.417Z,10.70
2022-08-20T17:43:33.795Z,9.38
2022-08-20T17:46:24.161Z,9.25
2022-08-20T17:49:19.817Z,10.77
2022-08-20T17:52:18.717Z,9.30
2022-08-20T17:55:09.577Z,10.30
2022-08-20T17:58:02.243Z,8.23
2022-08-20T18:00:51.644Z,10.48
2022-08-20T18:03:41.744Z,10.00
2022-08-20T18:06:40.913Z,13.48
2022-08-20T18:10:03.730Z,13.82
2022-08-20T18:13:05.348Z,11.52
2022-08-20T18:16:00.002Z,13.35
2022-08-20T18:18:56.927Z,14.32
2022-08-20T18:22:05.897Z,9.35
2022-08-20T18:24:59.224Z,11.43
2022-08-20T18:27:50.731Z,15.82
2022-08-20T18:30:50.737Z,9.95
2022-08-20T18:33:45.262Z,11.85
2022-08-20T18:36:36.315Z,12.20
2022-08-20T18:39:31.171Z,11.55
2022-08-20T18:42:39.713Z,10.70
2022-08-20T18:45:38.247Z,9.73
2022-08-20T18:48:27.792Z,13.93
2022-08-20T18:51:17.625Z,14.32
2022-08-20T18:54:08.108Z,11.90
2022-08-20T18:57:06.525Z,11.05
2022-08-20T19:00:12.962Z,14.82
2022-08-20T19:03:35.924Z,10.90
2022-08-20T19:06:35.466Z,19.45
2022-08-20T19:09:37.540Z,11.95
2022-08-20T19:13:18.904Z,17.70
2022-08-20T19:16:12.212Z,13.45
2022-08-20T19:19:02.102Z,12.25
2022-08-20T19:21:53.210Z,13.48
2022-08-20T19:24:45.723Z,16.00
2022-08-20T19:27:35.299Z,15.10
2022-08-20T19:30:39.697Z,11.23
2022-08-20T19:33:32.752Z,14.10
2022-08-20T19:36:35.010Z,14.07
2022-08-20T19:39:25.823Z,14.32
2022-08-20T19:42:29.729Z,12.77
2022-08-20T19:45:39.285Z,16.08
2022-08-20T19:48:50.047Z,16.00
2022-08-20T19:51:58.040Z,15.13
2022-08-20T19:55:03.347Z,13.35
2022-08-20T19:57:56.554Z,17.05
2022-08-20T20:00:50.152Z,16.35
2022-08-20T20:03:40.103Z,14.25
2022-08-20T20:06:31.624Z,14.15
2022-08-20T20:09:28.465Z,19.65
2022-08-20T20:12:22.807Z,19.83
2022-08-20T20:15:12.985Z,22.67
2022-08-20T20:18:02.460Z,27.63
2022-08-20T20:20:58.404Z,26.13
2022-08-20T20:23:59.068Z,28.42
2022-08-20T20:26:50.127Z,27.90
2022-08-20T20:29:39.719Z,27.88
2022-08-20T20:32:30.168Z,27.95
2022-08-20T20:35:36.428Z,25.15
2022-08-20T20:38:28.881Z,22.13
2022-08-20T20:41:27.028Z,24.98
2022-08-20T20:44:23.905Z,23.38
2022-08-20T20:47:35.905Z,24.48
2022-08-20T20:50:35.960Z,22.27
2022-08-20T20:53:51.196Z,25.52
2022-08-20T20:56:44.738Z,27.83
2022-08-20T20:59:37.372Z,22.35
2022-08-20T21:02:26.689Z,24.55
2022-08-20T21:05:17.893Z,25.15
2022-08-20T21:08:10.510Z,25.05
2022-08-20T21:11:00.353Z,24.17
2022-08-20T21:13:50.123Z,30.75
2022-08-20T21:16:39.858Z,24.08
2022-08-20T21:19:30.302Z,28.80
2022-08-20T21:22:22.729Z,27.15
2022-08-20T21:25:12.661Z,25.13
2022-08-20T21:28:03.018Z,25.67
2022-08-20T21:30:58.417Z,28.42
2022-08-20T21:33:48.223Z,33.17
2022-08-20T21:36:37.481Z,30.17
2022-08-20T21:39:27.429Z,35.08
2022-08-20T21:42:28.956Z,35.72
2022-08-20T21:45:20.004Z,36.45
2022-08-20T21:48:09.235Z,36.08
2022-08-20T21:50:58.878Z,31.75
2022-08-20T21:53:48.459Z,35.53
2022-08-20T21:56:39.036Z,29.38
2022-08-20T21:59:28.479Z,36.05
2022-08-20T22:02:19.439Z,30.52
2022-08-20T22:05:09.191Z,25.63
2022-08-20T22:07:58.839Z,27.58
2022-08-20T22:10:48.879Z,26.20
2022-08-20T22:13:39.632Z,29.63
2022-08-20T22:16:29.223Z,31.98
2022-08-20T22:19:18.975Z,32.08
2022-08-20T22:22:12.045Z,29.48
2022-08-20T22:25:05.115Z,32.03
2022-08-20T22:27:59.869Z,32.75
2022-08-20T22:30:49.723Z,31.90
2022-08-20T22:33:40.563Z,39.25
2022-08-20T22:36:31.414Z,36.60
2022-08-20T22:39:23.522Z,32.60
2022-08-20T22:42:16.333Z,36.75
2022-08-20T22:45:14.541Z,39.15
2022-08-20T22:48:05.169Z,31.63
2022-08-20T22:50:55.613Z,31.83
2022-08-20T22:53:46.840Z,31.35
2022-08-20T22:56:36.261Z,34.25
2022-08-20T22:59:26.506Z,34.10
2022-08-20T23:02:20.349Z,32.20
2022-08-20T23:05:14.471Z,35.78
2022-08-20T23:08:04.500Z,35.88
2022-08-20T23:10:54.304Z,35.20
2022-08-20T23:13:44.256Z,36.75
2022-08-20T23:16:34.710Z,36.22
2022-08-20T23:19:25.084Z,28.83
2022-08-20T23:22:15.028Z,34.28
2022-08-20T23:25:07.218Z,27.65
2022-08-20T23:28:04.227Z,25.27
2022-08-20T23:30:54.567Z,28.25
2022-08-20T23:33:44.945Z,29.20
2022-08-20T23:36:35.393Z,28.98
2022-08-20T23:39:26.012Z,34.67
2022-08-20T23:42:16.442Z,32.20
2022-08-20T23:45:07.297Z,32.03
2022-08-20T23:47:57.160Z,31.58
2022-08-20T23:50:46.736Z,34.22
2022-08-20T23:53:39.197Z,31.20
2022-08-20T23:56:28.664Z,30.10
2022-08-20T23:59:17.775Z,33.08
